Time;durP1;ratioP1;P1;durP2;ratioP2;P2;SDS_P1;SDS_P2;PMS_P1;PMS_P2;Temp;Humidity;BMP_temperature;BMP_pressure;BME280_temperature;BME280_humidity;BME280_pressure;Samples;Min_cycle;Max_cycle;Signal;HPM_P1;HPM_P2
2023/03/03 00:01:05;;;;;;;18.10;7.30;;;5.70;99.90;;;5.82;56.53;101783.50;4888376;28;100291;-46
2023/03/03 00:03:31;;;;;;;11.73;6.07;;;5.80;99.90;;;5.81;56.22;101785.25;4892453;28;98813;-47
2023/03/03 00:05:58;;;;;;;12.40;6.70;;;5.70;99.90;;;5.76;56.51;101778.22;4884265;28;97659;-45
2023/03/03 00:08:24;;;;;;;11.70;6.40;;;5.70;99.90;;;5.73;56.27;101783.47;4884975;28;98371;-49
2023/03/03 00:10:51;;;;;;;13.07;6.90;;;5.60;99.90;;;5.66;56.14;101779.97;4899645;28;99642;-44
2023/03/03 00:13:24;;;;;;;15.17;7.60;;;5.60;99.90;;;5.64;56.60;101782.59;4889413;28;97504;-44
2023/03/03 00:15:51;;;;;;;12.70;5.83;;;5.50;99.90;;;5.58;56.24;101781.69;4886137;28;100701;-45
2023/03/03 00:18:34;;;;;;;16.03;6.93;;;5.50;99.90;;;5.51;56.50;101783.44;4885752;28;100114;-45
2023/03/03 00:21:02;;;;;;;17.73;7.90;;;5.40;99.90;;;5.48;56.72;101785.13;4884244;28;100232;-45
2023/03/03 00:23:42;;;;;;;16.33;7.63;;;5.40;99.90;;;5.45;56.47;101780.78;4896671;28;100468;-45
2023/03/03 00:26:35;;;;;;;16.67;6.97;;;5.40;99.90;;;5.43;57.20;101781.66;4891654;28;99761;-44
2023/03/03 00:29:02;;;;;;;15.60;7.47;;;5.40;99.90;;;5.41;57.01;101788.63;4884963;28;100656;-45
2023/03/03 00:31:33;;;;;;;20.27;8.70;;;5.40;99.90;;;5.47;56.80;101793.88;4906631;28;100712;-45
2023/03/03 00:34:16;;;;;;;15.07;8.30;;;5.40;99.90;;;5.56;56.30;101799.13;4883580;28;97629;-45
2023/03/03 00:36:42;;;;;;;19.93;8.57;;;5.50;99.90;;;5.59;55.97;101800.00;4885248;28;97705;-45
2023/03/03 00:39:33;;;;;;;18.07;7.60;;;5.60;99.90;;;5.53;55.88;101788.66;4892146;28;98152;-45
2023/03/03 00:41:59;;;;;;;16.20;7.03;;;5.50;99.90;;;5.52;54.98;101798.25;4886506;28;100290;-45
2023/03/03 00:44:44;;;;;;;14.67;8.07;;;5.40;99.90;;;5.46;55.17;101802.59;4893996;28;102420;-46
2023/03/03 00:47:18;;;;;;;16.37;7.33;;;5.40;99.90;;;5.45;55.45;101803.44;4884595;28;97562;-44
2023/03/03 00:49:44;;;;;;;14.63;7.17;;;5.30;99.90;;;5.46;55.86;101808.69;4884535;28;101048;-45
2023/03/03 00:52:17;;;;;;;17.73;8.30;;;5.40;99.90;;;5.48;55.06;101812.19;4891659;28;115598;-49
2023/03/03 00:54:43;;;;;;;14.03;6.47;;;5.40;99.90;;;5.44;55.51;101810.44;4890505;28;99124;-49
2023/03/03 00:57:11;;;;;;;14.30;6.33;;;5.30;99.90;;;5.41;55.87;101815.66;4888497;28;97640;-47
2023/03/03 00:59:38;;;;;;;16.13;7.57;;;5.30;99.90;;;5.35;55.92;101813.00;4887023;28;98896;-45
2023/03/03 01:02:04;;;;;;;15.27;7.73;;;5.20;99.90;;;5.28;55.79;101811.25;4883367;28;98327;-45
2023/03/03 01:04:30;;;;;;;16.17;6.07;;;5.20;99.90;;;5.23;55.79;101810.34;4890140;28;98831;-47
2023/03/03 01:06:55;;;;;;;16.40;7.00;;;5.10;99.90;;;5.22;55.78;101809.50;4879505;28;98544;-45
2023/03/03 01:09:22;;;;;;;15.17;7.03;;;5.10;99.90;;;5.20;55.62;101811.19;4886542;28;104828;-44
2023/03/03 01:11:48;;;;;;;15.70;6.83;;;5.10;99.90;;;5.18;55.72;101812.06;4884000;28;98472;-45
2023/03/03 01:14:14;;;;;;;17.23;7.37;;;5.10;99.90;;;5.19;55.81;101813.81;4891525;28;97550;-45
2023/03/03 01:16:40;;;;;;;15.67;6.53;;;5.10;99.90;;;5.16;55.97;101809.44;4896161;28;98641;-45
2023/03/03 01:19:07;;;;;;;16.57;7.17;;;5.10;99.90;;;5.07;55.29;101820.75;4884049;28;102850;-47
2023/03/03 01:21:32;;;;;;;18.03;7.63;;;5.00;99.90;;;4.98;56.38;101818.06;4889707;28;97403;-45
2023/03/03 01:23:58;;;;;;;15.40;6.47;;;4.90;99.90;;;4.89;57.34;101815.38;4887567;28;97670;-45
2023/03/03 01:26:24;;;;;;;16.00;7.70;;;4.80;99.90;;;4.83;57.12;101815.38;4891236;28;100874;-45
2023/03/03 01:28:50;;;;;;;20.33;8.63;;;4.70;99.90;;;4.79;57.87;101818.84;4884040;28;109250;-46
2023/03/03 01:31:16;;;;;;;15.97;7.30;;;4.70;99.90;;;4.77;57.32;101817.91;4888673;28;97416;-46
2023/03/03 01:33:41;;;;;;;13.43;6.70;;;4.70;99.90;;;4.73;57.53;101818.78;4887509;28;99323;-45
2023/03/03 01:36:08;;;;;;;14.10;7.13;;;4.70;99.90;;;4.70;58.19;101818.75;4886832;28;97368;-47
2023/03/03 01:38:37;;;;;;;20.50;8.47;;;4.60;99.90;;;4.72;58.41;101811.78;4891429;28;97624;-46
2023/03/03 01:41:04;;;;;;;21.20;8.63;;;4.70;99.90;;;4.72;58.39;101817.03;4887720;28;99096;-45
2023/03/03 01:43:32;;;;;;;19.43;8.53;;;4.70;99.90;;;4.76;58.13;101813.56;4891373;28;98974;-44
2023/03/03 01:45:57;;;;;;;16.77;7.17;;;4.80;99.90;;;4.83;58.13;101810.13;4884845;28;99798;-46
2023/03/03 01:48:38;;;;;;;20.70;9.33;;;4.80;99.90;;;4.82;57.42;101818.84;4890484;28;98598;-46
2023/03/03 01:51:34;;;;;;;16.63;8.10;;;4.80;99.90;;;4.81;57.66;101822.31;4878081;28;98868;-45
2023/03/03 01:54:10;;;;;;;20.47;8.57;;;4.80;99.90;;;4.82;58.47;101824.06;4879393;28;97644;-47
2023/03/03 01:56:35;;;;;;;16.80;6.30;;;4.80;99.90;;;4.81;57.98;101826.69;4884702;28;98668;-45
2023/03/03 01:59:07;;;;;;;16.17;8.60;;;4.80;99.90;;;4.83;57.99;101825.81;4883714;28;101054;-47
2023/03/03 02:01:33;;;;;;;19.03;8.20;;;4.80;99.90;;;4.84;58.51;101816.25;4888503;28;97654;-45
2023/03/03 02:04:00;;;;;;;24.17;10.07;;;4.80;99.90;;;4.84;57.88;101826.69;4882397;28;97487;-46
2023/03/03 02:06:39;;;;;;;18.37;7.70;;;4.80;99.90;;;4.84;57.94;101840.63;4888755;28;99782;-45
2023/03/03 02:09:17;;;;;;;17.37;8.80;;;4.80;99.90;;;4.84;58.39;101838.03;4875204;28;98267;-46
2023/03/03 02:11:46;;;;;;;19.87;7.77;;;4.80;99.90;;;4.85;57.40;101829.31;4881334;28;101341;-46
2023/03/03 02:14:12;;;;;;;21.00;8.80;;;4.80;99.90;;;4.88;57.96;101820.59;4893195;28;100287;-45
2023/03/03 02:16:39;;;;;;;15.33;7.83;;;4.80;99.90;;;4.88;57.55;101824.09;4890095;28;97844;-45
2023/03/03 02:19:16;;;;;;;20.00;9.27;;;4.90;99.90;;;4.86;57.57;101820.59;4883598;28;97702;-45
2023/03/03 02:21:42;;;;;;;17.17;7.53;;;4.80;99.90;;;4.84;58.17;101819.72;4885450;28;98951;-45
2023/03/03 02:24:20;;;;;;;20.60;8.43;;;4.80;99.90;;;4.85;58.00;101824.09;4915315;28;99355;-44
2023/03/03 02:26:47;;;;;;;16.80;7.13;;;4.80;99.90;;;4.85;58.44;101823.22;4919781;28;97785;-44
2023/03/03 02:29:13;;;;;;;22.03;9.07;;;4.80;99.90;;;4.82;58.69;101829.31;4930181;28;98980;-45
2023/03/03 02:31:39;;;;;;;17.90;8.33;;;4.80;99.90;;;4.84;59.17;101838.03;4928680;28;97797;-45
2023/03/03 02:34:05;;;;;;;17.57;7.43;;;4.80;99.90;;;4.88;59.06;101834.56;4920880;28;97986;-45
2023/03/03 02:36:36;;;;;;;20.03;8.07;;;4.90;99.90;;;4.90;58.34;101821.50;4924264;28;97569;-46
2023/03/03 02:39:21;;;;;;;18.30;8.17;;;4.90;99.90;;;4.93;58.93;101825.03;4924215;28;97528;-44
2023/03/03 02:42:21;;;;;;;15.50;6.90;;;4.90;99.90;;;4.95;58.98;101836.38;4918554;28;97644;-44
2023/03/03 02:44:47;;;;;;;15.63;7.30;;;4.90;99.90;;;4.95;59.03;101835.50;4921118;28;97820;-45
2023/03/03 02:47:13;;;;;;;17.27;8.00;;;4.90;99.90;;;5.00;59.07;101845.09;4925605;28;97346;-44
2023/03/03 02:49:38;;;;;;;15.67;7.40;;;5.00;99.90;;;5.04;58.42;101839.00;4932562;28;102682;-45
2023/03/03 02:52:10;;;;;;;17.30;8.03;;;5.10;99.90;;;5.07;58.67;101841.66;4918863;28;103190;-44
2023/03/03 02:54:37;;;;;;;14.43;7.20;;;5.10;99.90;;;5.15;59.18;101835.59;4923600;28;97138;-44
2023/03/03 02:57:04;;;;;;;13.27;6.80;;;5.10;99.90;;;5.43;57.90;101834.84;4918248;28;97539;-44
2023/03/03 02:59:30;;;;;;;17.50;7.77;;;5.40;99.90;;;5.45;57.68;101832.25;4926327;28;100375;-45
2023/03/03 03:01:57;;;;;;;15.43;7.23;;;5.50;99.90;;;5.92;56.38;101838.53;4919598;28;97568;-44
2023/03/03 03:04:26;;;;;;;15.60;7.47;;;6.00;99.90;;;5.92;56.33;101837.66;4932612;28;97748;-44
2023/03/03 03:06:53;;;;;;;15.80;7.20;;;6.00;99.90;;;5.95;56.21;101833.31;4919217;28;97699;-44
2023/03/03 03:09:22;;;;;;;14.40;7.13;;;6.00;99.90;;;5.88;55.90;101833.25;4925962;28;97910;-44
2023/03/03 03:11:48;;;;;;;14.20;7.03;;;5.80;99.90;;;5.87;57.44;101834.13;4917357;28;97487;-44
2023/03/03 03:14:14;;;;;;;15.20;7.63;;;5.80;99.90;;;5.86;57.27;101829.75;4920106;28;97484;-46
2023/03/03 03:16:41;;;;;;;14.93;7.77;;;5.80;99.90;;;5.81;56.16;101831.50;4923977;28;97442;-47
2023/03/03 03:19:07;;;;;;;16.97;8.13;;;5.70;99.90;;;5.73;56.36;101822.75;4918633;28;120555;-44
2023/03/03 03:21:33;;;;;;;16.43;7.33;;;5.60;99.90;;;5.64;57.20;101831.44;4916637;28;97581;-44
2023/03/03 03:23:59;;;;;;;13.50;5.63;;;5.50;99.90;;;5.58;57.14;101834.91;4918487;28;97441;-44
2023/03/03 03:26:26;;;;;;;19.73;7.27;;;5.50;99.90;;;5.52;56.85;101834.91;4915759;28;97176;-45
2023/03/03 03:28:52;;;;;;;16.87;6.97;;;5.40;99.90;;;5.44;56.93;101841.84;4915966;28;97647;-44
2023/03/03 03:31:19;;;;;;;19.47;7.87;;;5.30;99.90;;;5.36;57.94;101854.91;4927369;28;98686;-45
2023/03/03 03:33:45;;;;;;;11.57;6.80;;;5.30;99.90;;;5.34;57.62;101864.47;4918040;28;97503;-43
2023/03/03 03:36:11;;;;;;;16.10;6.27;;;5.30;99.90;;;5.36;57.90;101869.72;4922614;28;97683;-45
2023/03/03 03:38:37;;;;;;;17.20;7.20;;;5.30;99.90;;;5.40;57.75;101862.75;4929683;28;97231;-44
2023/03/03 03:41:05;;;;;;;13.67;6.17;;;5.40;99.90;;;5.58;58.75;101863.72;4919219;28;98165;-44
2023/03/03 03:43:31;;;;;;;14.67;6.73;;;5.50;99.90;;;5.53;56.94;101862.81;4927029;28;97488;-45
2023/03/03 03:45:57;;;;;;;13.33;7.07;;;5.50;99.90;;;5.54;56.93;101863.69;4911455;28;102467;-44
2023/03/03 03:48:23;;;;;;;12.90;6.00;;;5.50;99.90;;;5.57;57.42;101853.25;4925406;28;98220;-44
2023/03/03 03:50:49;;;;;;;14.10;5.37;;;5.50;99.90;;;5.54;57.15;101854.09;4918951;28;119784;-45
2023/03/03 03:53:17;;;;;;;12.90;6.20;;;5.50;99.90;;;5.53;57.53;101847.13;4919885;28;97538;-45
2023/03/03 03:55:44;;;;;;;17.43;6.97;;;5.50;99.90;;;5.49;56.94;101852.31;4924158;28;99241;-44
2023/03/03 03:58:15;;;;;;;11.57;6.23;;;5.40;99.90;;;5.45;57.10;101854.06;4922782;28;100936;-44
2023/03/03 04:00:42;;;;;;;18.20;7.23;;;5.40;99.90;;;5.43;57.17;101863.66;4924814;28;97386;-44
2023/03/03 04:03:08;;;;;;;15.43;6.37;;;5.40;99.90;;;5.35;57.14;101849.63;4928387;28;97409;-43
2023/03/03 04:05:34;;;;;;;14.00;5.73;;;5.30;99.90;;;5.29;57.44;101852.25;4927838;28;97455;-44
2023/03/03 04:08:00;;;;;;;11.03;5.80;;;5.30;99.90;;;5.30;57.57;101853.97;4918157;28;97394;-45
2023/03/03 04:10:26;;;;;;;12.23;5.77;;;5.30;99.90;;;5.26;57.38;101839.16;4932001;28;97676;-44
2023/03/03 04:12:51;;;;;;;13.20;5.27;;;5.20;99.90;;;5.25;57.07;101840.00;4921605;28;101511;-44
2023/03/03 04:15:17;;;;;;;12.90;6.23;;;5.20;99.90;;;5.22;57.62;101855.69;4926245;28;104042;-43
2023/03/03 04:17:43;;;;;;;10.33;5.23;;;5.20;99.90;;;5.19;57.51;101853.03;4920770;28;98462;-44
2023/03/03 04:20:14;;;;;;;12.30;5.17;;;5.20;99.90;;;5.17;57.59;101862.63;4924148;28;97892;-44
2023/03/03 04:22:41;;;;;;;10.07;4.47;;;5.10;99.90;;;5.11;57.72;101857.38;4934919;28;97763;-44
2023/03/03 04:25:08;;;;;;;13.07;5.60;;;5.10;99.90;;;5.12;58.01;101860.00;4930602;28;100988;-45
2023/03/03 04:27:35;;;;;;;12.57;5.63;;;5.10;99.90;;;5.14;57.73;101854.78;4923506;28;99075;-44
2023/03/03 04:30:03;;;;;;;8.67;4.77;;;5.10;99.90;;;5.13;58.21;101855.63;4925641;28;97074;-44
2023/03/03 04:32:32;;;;;;;12.30;5.80;;;5.10;99.90;;;5.22;60.32;101866.16;4925697;28;97152;-43
2023/03/03 04:34:58;;;;;;;13.17;5.90;;;5.20;99.90;;;5.23;57.43;101860.06;4926480;28;97564;-44
2023/03/03 04:37:24;;;;;;;16.57;5.60;;;5.30;99.90;;;5.26;57.81;101875.78;4909323;28;97872;-44
2023/03/03 04:39:50;;;;;;;12.83;6.27;;;5.30;99.90;;;5.31;57.61;101871.44;4920032;28;98177;-44
2023/03/03 04:42:16;;;;;;;18.43;7.87;;;5.30;99.90;;;5.32;58.04;101879.28;4926193;28;100526;-45
2023/03/03 04:44:42;;;;;;;15.50;5.53;;;5.30;99.90;;;5.30;58.16;101869.69;4925944;28;98148;-47
2023/03/03 04:47:08;;;;;;;12.90;5.67;;;5.30;99.90;;;5.35;57.72;101868.84;4922001;28;101303;-44
2023/03/03 04:49:34;;;;;;;15.80;5.77;;;5.40;99.90;;;5.34;57.68;101879.28;4930448;28;98147;-43
2023/03/03 04:52:00;;;;;;;14.33;5.93;;;5.30;99.90;;;5.38;58.05;101883.69;4925216;28;97260;-44
2023/03/03 04:54:25;;;;;;;11.83;5.17;;;5.40;99.90;;;5.34;57.65;101877.53;4929628;28;97601;-44
2023/03/03 04:56:51;;;;;;;11.33;5.70;;;5.40;99.90;;;5.39;59.24;101885.44;4923236;28;97918;-46
2023/03/03 04:59:17;;;;;;;14.27;4.40;;;5.40;99.90;;;5.75;60.18;101879.47;4932842;28;97838;-43
2023/03/03 05:01:45;;;;;;;10.20;5.93;;;5.60;99.90;;;5.74;56.88;101882.09;4925283;28;98122;-44
2023/03/03 05:04:11;;;;;;;16.37;5.90;;;5.80;99.90;;;5.81;56.60;101883.88;4920597;28;97539;-44
2023/03/03 05:06:37;;;;;;;6.00;3.53;;;5.80;99.90;;;6.17;58.06;101884.00;4915398;28;98552;-45
2023/03/03 05:09:03;;;;;;;11.17;4.70;;;6.10;99.90;;;6.14;55.89;101884.00;4923019;28;97454;-44
2023/03/03 05:11:29;;;;;;;6.60;3.57;;;6.10;99.90;;;6.70;56.96;101901.53;4930366;28;97723;-44
2023/03/03 05:13:55;;;;;;;8.90;3.87;;;6.60;99.90;;;6.94;54.38;101890.13;4922072;28;97308;-45
2023/03/03 05:16:21;;;;;;;7.33;3.33;;;6.90;99.90;;;6.94;55.05;101894.50;4920056;28;97538;-44
2023/03/03 05:18:47;;;;;;;4.60;2.60;;;6.80;99.90;;;7.28;55.35;101896.22;4924039;28;115455;-44
2023/03/03 05:21:13;;;;;;;15.43;6.37;;;7.00;99.90;;;7.47;53.60;101897.03;4929195;28;97966;-43
2023/03/03 05:23:39;;;;;;;10.70;5.47;;;7.50;99.90;;;7.33;51.70;101899.69;4928539;28;98125;-44
2023/03/03 05:26:05;;;;;;;13.40;4.93;;;7.30;99.90;;;7.52;52.65;101915.38;4922080;28;100076;-44
2023/03/03 05:28:32;;;;;;;11.57;5.93;;;7.40;99.90;;;7.81;50.69;101907.38;4921932;28;98487;-43
2023/03/03 05:30:57;;;;;;;11.30;4.33;;;7.80;99.90;;;8.07;50.81;101909.00;4919684;28;98973;-45
2023/03/03 05:33:23;;;;;;;12.90;5.53;;;8.00;99.90;;;7.84;50.38;101923.16;4925521;28;97632;-43
2023/03/03 05:35:56;;;;;;;9.97;4.20;;;7.70;99.90;;;7.81;52.12;101916.19;4925337;28;97737;-44
2023/03/03 05:38:23;;;;;;;10.33;3.93;;;7.50;99.90;;;7.90;52.76;101920.50;4926777;28;97366;-44
2023/03/03 05:40:50;;;;;;;13.60;5.47;;;7.50;99.90;;;8.05;51.15;101910.78;4917351;28;98010;-46
2023/03/03 05:43:15;;;;;;;11.27;4.37;;;7.80;99.90;;;8.01;52.51;101911.69;4926289;28;97807;-44
2023/03/03 05:45:41;;;;;;;9.23;4.33;;;7.70;99.90;;;8.01;52.46;101916.06;4927829;28;110727;-45
2023/03/03 05:48:09;;;;;;;6.33;3.03;;;7.70;99.90;;;8.63;51.80;101913.06;4919632;28;101139;-44
2023/03/03 05:50:36;;;;;;;10.27;5.87;;;8.40;99.90;;;9.28;46.90;101894.94;4930085;28;97316;-44
2023/03/03 05:53:02;;;;;;;14.47;6.27;;;9.50;99.90;;;8.94;47.14;101897.00;4905643;28;97480;-45
2023/03/03 05:55:28;;;;;;;11.87;5.57;;;9.00;99.90;;;8.63;47.95;101909.56;4922120;28;98214;-45
2023/03/03 05:57:54;;;;;;;3.60;2.23;;;8.50;99.90;;;8.77;51.12;101909.44;4920377;28;98703;-46
2023/03/03 06:00:20;;;;;;;10.77;5.10;;;8.40;99.90;;;8.69;48.32;101921.81;4926072;28;97953;-46
2023/03/03 06:02:46;;;;;;;6.43;2.63;;;8.60;99.90;;;9.10;50.13;101919.66;4924075;28;98250;-46
2023/03/03 06:05:12;;;;;;;8.77;3.93;;;8.90;99.90;;;9.15;49.28;101923.16;4925779;28;97568;-45
2023/03/03 06:07:38;;;;;;;15.70;5.20;;;9.00;99.90;;;9.34;46.28;101918.56;4920215;28;98090;-48
2023/03/03 06:10:05;;;;;;;4.43;1.73;;;9.30;99.90;;;9.93;48.13;101914.34;4925496;28;97557;-44
2023/03/03 06:15:11;;;;;;;11.30;5.23;;;10.60;99.90;;;10.42;43.98;101911.94;5774238;22;98863;-51
2023/03/03 06:17:36;;;;;;;4.57;2.50;;;10.70;99.90;;;11.01;45.46;101919.78;5324018;22;98875;-53
2023/03/03 06:20:03;;;;;;;11.50;4.90;;;11.20;99.90;;;10.91;42.07;101921.69;4931452;28;97370;-54
2023/03/03 06:22:29;;;;;;;4.70;2.90;;;11.20;98.80;;;10.47;44.62;101924.19;4936410;28;97300;-54
2023/03/03 06:24:55;;;;;;;10.93;5.27;;;10.40;99.90;;;10.00;44.01;101925.69;4919428;28;124599;-55
2023/03/03 06:27:21;;;;;;;12.00;4.57;;;9.80;99.90;;;9.89;44.20;101927.59;4909091;28;116936;-57
2023/03/03 06:29:47;;;;;;;11.63;5.37;;;9.60;99.90;;;9.61;46.17;101935.81;4913883;28;97929;-56
2023/03/03 06:32:13;;;;;;;10.77;4.37;;;9.30;99.90;;;9.14;46.06;101942.47;4913747;28;100578;-51
2023/03/03 06:34:39;;;;;;;5.77;3.33;;;8.80;99.90;;;9.43;47.86;101949.22;4910459;28;100055;-51
2023/03/03 06:37:05;;;;;;;4.20;2.63;;;9.10;99.90;;;9.54;48.78;101944.66;4912239;28;97717;-55
2023/03/03 06:39:31;;;;;;;4.90;2.73;;;9.20;99.90;;;9.93;48.03;101953.00;4912023;28;98143;-53
2023/03/03 06:41:56;;;;;;;13.80;5.37;;;9.80;99.90;;;10.38;43.38;101957.69;4910563;28;107727;-53
2023/03/03 06:44:22;;;;;;;3.43;1.90;;;10.60;99.90;;;10.47;46.37;101964.63;4906296;28;126972;-51
2023/03/03 06:46:48;;;;;;;4.00;1.90;;;10.50;99.90;;;10.96;45.62;101964.72;4905647;28;104227;-55
2023/03/03 06:49:14;;;;;;;6.93;3.40;;;11.10;99.90;;;11.33;44.33;101961.47;4914368;28;98463;-54
2023/03/03 06:51:40;;;;;;;5.27;2.57;;;11.60;99.90;;;11.66;44.13;101964.38;4912810;28;107758;-60
2023/03/03 06:54:14;;;;;;;5.40;2.70;;;11.90;99.90;;;12.07;42.91;101975.00;4911667;28;98193;-56
2023/03/03 06:56:44;;;;;;;4.47;2.47;;;12.40;99.30;;;12.39;41.53;101976.97;4910683;28;97837;-62
2023/03/03 06:59:21;;;;;;;3.03;1.87;;;12.80;97.30;;;12.62;41.89;101989.69;4912494;28;97420;-57
2023/03/03 07:01:49;;;;;;;7.43;3.60;;;13.00;98.10;;;12.69;39.11;101988.63;4906292;28;97857;-54
2023/03/03 07:04:29;;;;;;;2.53;1.57;;;13.00;94.50;;;12.70;41.67;101992.13;4913730;28;97510;-55
2023/03/03 07:06:58;;;;;;;7.37;3.43;;;12.90;97.70;;;12.76;40.74;101986.72;4909858;28;97708;-57
2023/03/03 07:09:26;;;;;;;7.80;3.37;;;12.90;96.40;;;12.84;38.23;101994.47;4908449;28;97787;-51
2023/03/03 07:11:59;;;;;;;9.20;4.07;;;13.10;95.10;;;12.91;37.56;102001.38;4908272;28;97961;-57
2023/03/03 07:14:24;;;;;;;9.00;3.77;;;13.20;94.30;;;12.55;38.88;101998.66;4910400;28;97653;-53
2023/03/03 07:16:58;;;;;;;4.20;2.03;;;12.60;94.90;;;12.71;41.45;101999.16;4907959;28;117110;-57
2023/03/03 07:19:33;;;;;;;3.10;1.40;;;12.70;97.90;;;12.72;40.68;102001.78;4913736;28;98733;-56
2023/03/03 07:22:30;;;;;;;2.33;1.60;;;12.80;96.10;;;12.68;41.60;102004.53;4909971;28;97649;-55
2023/03/03 07:25:00;;;;;;;4.83;2.43;;;12.70;97.30;;;12.85;41.21;101996.19;4887638;28;116239;-54
2023/03/03 07:27:30;;;;;;;9.43;3.93;;;13.00;96.70;;;12.89;39.92;102004.06;4905767;28;97672;-57
2023/03/03 07:30:27;;;;;;;9.87;4.17;;;13.10;94.80;;;12.33;38.53;102010.63;4909589;28;111178;-53
2023/03/03 07:32:56;;;;;;;11.03;4.47;;;12.40;93.80;;;12.20;40.05;102008.25;4914826;28;97443;-58
2023/03/03 07:35:43;;;;;;;4.10;1.60;;;12.20;95.10;;;11.99;42.84;102007.81;4916632;28;100060;-57
2023/03/03 07:38:33;;;;;;;10.57;4.80;;;11.70;99.30;;;11.25;41.27;102013.53;4907669;28;101788;-51
2023/03/03 07:41:02;;;;;;;3.77;1.53;;;11.00;96.90;;;11.40;44.28;102015.91;4917958;28;96884;-57
2023/03/03 07:43:49;;;;;;;5.20;2.30;;;11.10;99.90;;;11.71;42.55;102012.72;4913901;28;98456;-54
2023/03/03 07:46:44;;;;;;;9.83;4.63;;;11.70;98.90;;;11.18;41.93;102017.19;4938372;28;98082;-55
2023/03/03 07:49:35;;;;;;;10.63;4.53;;;11.10;96.80;;;10.71;41.85;102021.47;4919901;28;97425;-57
2023/03/03 07:52:26;;;;;;;11.10;4.90;;;10.50;98.30;;;10.41;42.61;102026.28;4923030;28;97643;-50
2023/03/03 07:54:55;;;;;;;8.47;4.13;;;10.20;99.30;;;10.52;43.92;102019.94;4924446;28;99176;-57
2023/03/03 07:57:50;;;;;;;10.00;4.80;;;10.30;99.90;;;10.48;43.28;102024.41;4924553;28;98126;-56
2023/03/03 08:00:15;;;;;;;11.67;4.70;;;10.40;99.10;;;9.99;43.75;102019.72;4902026;28;100679;-50
2023/03/03 08:02:51;;;;;;;2.63;1.60;;;9.80;99.90;;;9.72;47.56;102026.19;4929736;28;97717;-50
2023/03/03 08:05:50;;;;;;;2.97;1.40;;;9.40;99.90;;;10.10;47.85;102027.50;4923544;28;97460;-51
2023/03/03 08:08:32;;;;;;;9.57;4.00;;;9.80;99.90;;;9.88;47.40;102026.88;4890601;28;107639;-53
2023/03/03 08:11:02;;;;;;;10.60;5.13;;;9.70;99.90;;;10.18;43.74;102028.28;4927513;28;100679;-58
2023/03/03 08:13:33;;;;;;;4.37;2.00;;;10.10;99.90;;;10.66;46.50;102039.97;4923069;28;97778;-51
2023/03/03 08:16:08;;;;;;;10.03;4.67;;;10.70;99.90;;;10.37;42.61;102032.47;4924228;28;97128;-56
2023/03/03 08:18:45;;;;;;;7.53;4.30;;;10.50;98.70;;;10.03;43.46;102031.09;4918786;28;101623;-49
2023/03/03 08:21:13;;;;;;;2.30;1.37;;;9.90;99.80;;;9.86;47.72;102054.16;4926504;28;96980;-57
2023/03/03 08:23:40;;;;;;;3.47;2.03;;;9.50;99.90;;;10.11;47.21;102045.06;4933879;28;97672;-52
2023/03/03 08:26:06;;;;;;;11.53;4.70;;;9.90;99.90;;;10.11;43.73;102051.19;4919349;28;97609;-56
2023/03/03 08:28:32;;;;;;;9.47;4.67;;;10.10;99.90;;;9.87;43.47;102059.41;4926627;28;98224;-53
2023/03/03 08:30:57;;;;;;;7.60;3.40;;;9.60;99.90;;;10.01;47.29;102053.97;4921835;28;108371;-53
2023/03/03 08:33:23;;;;;;;4.27;2.33;;;9.70;99.90;;;10.32;45.77;102057.16;4924174;28;101914;-57
2023/03/03 08:35:49;;;;;;;10.53;4.57;;;10.20;99.90;;;10.30;44.57;102062.47;4929994;28;97632;-55
2023/03/03 08:38:19;;;;;;;12.83;4.83;;;10.30;99.90;;;10.08;43.51;102067.06;4925376;28;110576;-55
2023/03/03 08:40:46;;;;;;;8.43;3.90;;;9.90;99.90;;;9.75;46.45;102062.16;4937322;28;99000;-55
2023/03/03 08:43:20;;;;;;;4.37;2.17;;;9.40;99.90;;;10.48;46.96;102057.84;4925650;28;97660;-55
2023/03/03 08:45:48;;;;;;;2.33;1.27;;;10.30;99.90;;;10.79;46.05;102056.53;4915238;28;97313;-57
2023/03/03 08:48:15;;;;;;;8.57;3.80;;;10.80;99.90;;;10.95;43.41;102052.75;4921852;28;98100;-57
2023/03/03 08:50:41;;;;;;;9.00;4.23;;;11.00;99.30;;;10.66;42.41;102070.78;4920383;28;97875;-54
2023/03/03 08:53:07;;;;;;;10.30;4.43;;;10.60;98.80;;;10.32;43.25;102065.94;4925043;28;98107;-53
2023/03/03 08:55:33;;;;;;;8.53;4.80;;;10.10;99.90;;;9.98;43.64;102069.81;4921691;28;97578;-54
2023/03/03 08:57:59;;;;;;;10.73;4.80;;;9.60;99.90;;;9.61;44.50;102086.00;4925106;28;107160;-50
2023/03/03 09:00:25;;;;;;;12.70;4.27;;;9.20;99.90;;;9.25;45.28;102072.25;4916491;28;115524;-53
2023/03/03 09:02:52;;;;;;;10.87;4.80;;;8.90;99.90;;;8.99;48.82;102074.22;4926747;28;111761;-56
2023/03/03 09:05:20;;;;;;;11.73;5.97;;;8.50;99.90;;;8.88;47.13;102076.03;4916841;28;115594;-55
2023/03/03 09:07:47;;;;;;;4.57;2.20;;;8.60;99.90;;;9.30;49.89;102073.97;4923902;28;97332;-55
2023/03/03 09:10:18;;;;;;;5.03;2.07;;;9.10;99.90;;;9.73;48.83;102074.47;4924074;28;97766;-56
2023/03/03 09:12:47;;;;;;;13.77;5.80;;;9.60;99.90;;;9.66;44.75;102076.28;4913934;28;97817;-56
2023/03/03 09:15:27;;;;;;;4.60;2.97;;;9.70;99.90;;;9.61;48.52;102074.59;4921569;28;97516;-58
2023/03/03 09:17:57;;;;;;;3.00;1.80;;;9.30;99.90;;;10.13;47.69;102077.59;4929813;28;97374;-58
2023/03/03 09:20:35;;;;;;;13.87;5.90;;;10.10;99.90;;;10.22;43.18;102087.16;4915805;28;98552;-51
2023/03/03 09:23:29;;;;;;;10.23;3.90;;;10.30;99.80;;;9.86;44.03;102085.78;4922804;28;97370;-53
2023/03/03 09:25:55;;;;;;;6.23;2.47;;;9.80;99.90;;;9.92;48.06;102085.69;4921486;28;100505;-50
2023/03/03 09:28:30;;;;;;;8.97;3.70;;;9.60;99.90;;;9.93;47.52;102087.44;4919916;28;96960;-52
2023/03/03 09:31:01;;;;;;;6.57;2.30;;;9.70;99.90;;;10.51;46.92;102084.19;4922076;28;98220;-48
2023/03/03 09:33:46;;;;;;;10.53;4.73;;;10.40;99.90;;;10.48;45.93;102087.72;4917761;28;97834;-52
2023/03/03 09:36:20;;;;;;;6.23;2.70;;;10.50;99.90;;;11.12;45.43;102092.09;4917806;28;97383;-57
2023/03/03 09:38:46;;;;;;;3.30;1.70;;;11.20;99.90;;;11.53;44.42;102094.09;4927771;28;97529;-52
2023/03/03 09:41:24;;;;;;;10.07;3.93;;;11.70;99.90;;;11.80;43.75;102102.47;4916351;28;97533;-55
2023/03/03 09:44:17;;;;;;;4.47;2.63;;;12.10;99.10;;;11.89;40.85;102097.91;4942207;28;100322;-57
2023/03/03 09:47:08;;;;;;;13.57;5.90;;;12.20;96.20;;;11.47;40.45;102110.06;4937516;28;97010;-53
2023/03/03 09:49:38;;;;;;;5.27;2.50;;;11.50;96.90;;;11.46;44.44;102105.66;4922005;28;103928;-58
2023/03/03 09:52:28;;;;;;;3.63;1.60;;;11.20;99.90;;;11.63;44.05;102113.31;4929340;28;104486;-57
2023/03/03 09:54:58;;;;;;;6.53;3.17;;;11.40;99.90;;;11.86;43.81;102115.56;4935104;28;97657;-57
2023/03/03 09:58:01;;;;;;;6.70;3.00;;;11.90;99.60;;;12.20;42.94;102114.06;4915838;28;97056;-56
2023/03/03 10:01:02;;;;;;;2.67;1.30;;;12.40;98.70;;;12.49;42.18;102109.97;4921487;28;97375;-53
2023/03/03 10:04:05;;;;;;;5.40;2.47;;;12.70;97.90;;;12.59;41.89;102115.94;4919195;28;97107;-49
2023/03/03 10:06:53;;;;;;;3.27;2.23;;;12.80;97.70;;;12.49;41.57;102117.91;4922217;28;96937;-54
2023/03/03 10:09:38;;;;;;;3.57;2.00;;;12.60;96.80;;;12.62;38.99;102111.47;4942166;28;97935;-53
2023/03/03 10:12:50;;;;;;;18.23;5.27;;;12.80;95.10;;;12.32;39.09;102112.09;4923924;28;97579;-56
2023/03/03 10:15:18;;;;;;;3.57;2.73;;;12.40;95.30;;;12.05;42.70;102118.78;4895942;28;102729;-50
2023/03/03 10:17:55;;;;;;;4.20;1.97;;;11.90;98.70;;;12.38;42.58;102118.13;4930869;28;97284;-55
2023/03/03 10:20:51;;;;;;;12.17;4.23;;;12.40;98.50;;;12.38;39.59;102115.47;4917704;28;97518;-51
2023/03/03 10:23:43;;;;;;;7.03;2.27;;;12.50;95.60;;;12.31;40.07;102118.28;4920596;28;97859;-51
2023/03/03 10:26:37;;;;;;;5.50;2.80;;;12.30;96.60;;;12.45;42.02;102114.47;4917256;28;97586;-55
2023/03/03 10:29:33;;;;;;;11.27;5.00;;;12.50;97.50;;;12.50;39.40;102117.00;4926267;28;97498;-51
2023/03/03 10:32:37;;;;;;;7.40;3.10;;;12.60;95.10;;;12.71;41.79;102115.66;4923220;28;97462;-51
2023/03/03 10:35:21;;;;;;;2.50;1.33;;;12.70;97.60;;;12.70;41.16;102109.50;4917272;28;101545;-51